Saint-Tite-Des-Caps, Canada
Current Conditions -  °F | °C
As of 8:00 AM on Friday 28 Nov 2014 (Local Time) from CYOY Reporting Station
Overcast Overcast  
Wind Chill: 13°   Ceiling: 5300
Heat Index: 19°   Visibility: 9mi
Dew Point: 12°   Wind: 5mph
Humidity: 74%   Direction: 20°NNE
Pressure: 30.02"   Gusts: NA
Location:  47.13°N, 70.77°W
Report Text: CYOY 281300Z AUTO 02004KT 9SM OVC053 M07/M11 A3002 RMK SLP179
Loading
Personal Weather Stations






























Interactive Weather Map New forecast layout! Learn more

10-Day Weather Forecast

Advertisements
Track Severe Weather on mobile